Time,TemperatureF,DewpointF,PressureIn,WindDirection,WindDirectionDegrees,WindSpeedMPH,WindSpeedGustMPH,Humidity,HourlyPrecipIn,Conditions,Clouds,dailyrainin,SoftwareType,DateUTC
2013-07-08 13:07:00,88.7,75.0,30.18,NW,325,8.0,10.0,65,0.02,,,0.22,weatherlink.com 1.10,2013-07-08 17:07:00,
2013-07-08 13:12:00,88.1,76.0,30.18,NNW,330,6.0,10.0,67,0.02,,,0.22,weatherlink.com 1.10,2013-07-08 17:12:00,
2013-07-08 13:42:00,89.0,75.0,30.17,NW,313,6.0,10.0,64,0.02,,,0.22,weatherlink.com 1.10,2013-07-08 17:42:00,
2013-07-08 13:57:00,89.3,75.0,30.17,North,355,6.0,11.0,63,0.00,,,0.22,weatherlink.com 1.10,2013-07-08 17:57:00,
2013-07-08 14:12:00,90.0,73.0,30.16,NW,321,5.0,12.0,58,0.00,,,0.22,weatherlink.com 1.10,2013-07-08 18:12:00,
2013-07-08 14:42:00,88.1,77.0,30.15,West,280,7.0,13.0,69,0.00,,,0.22,weatherlink.com 1.10,2013-07-08 18:42:00,
2013-07-08 14:57:00,88.4,75.0,30.15,WNW,286,8.0,10.0,64,0.00,,,0.22,weatherlink.com 1.10,2013-07-08 18:57:00,
2013-07-08 15:12:00,89.0,75.0,30.14,WNW,301,9.0,10.0,64,0.00,,,0.22,weatherlink.com 1.10,2013-07-08 19:12:00,
2013-07-08 15:42:00,83.0,77.0,30.14,WSW,246,3.0,5.0,83,0.01,,,0.23,weatherlink.com 1.10,2013-07-08 19:42:00,
2013-07-08 15:57:00,85.1,79.0,30.13,West,275,3.0,4.0,82,0.01,,,0.23,weatherlink.com 1.10,2013-07-08 19:57:00,
2013-07-08 16:12:00,87.3,77.0,30.12,NNW,329,4.0,7.0,71,0.01,,,0.23,weatherlink.com 1.10,2013-07-08 20:12:00,
2013-07-08 16:57:00,87.4,76.0,30.11,NNE,19,1.0,6.0,68,0.01,,,0.24,weatherlink.com 1.10,2013-07-08 20:57:00,
2013-07-08 17:12:00,89.5,74.0,30.10,NNW,330,7.0,11.0,61,0.01,,,0.24,weatherlink.com 1.10,2013-07-08 21:12:00,
2013-07-08 17:27:00,89.0,73.0,30.10,North,355,6.0,9.0,60,0.01,,,0.24,weatherlink.com 1.10,2013-07-08 21:27:00,
2013-07-08 17:42:00,88.5,72.0,30.10,NNW,340,4.0,10.0,59,0.00,,,0.24,weatherlink.com 1.10,2013-07-08 21:42:00,
2013-07-08 18:12:00,88.2,74.0,30.10,North,360,6.0,10.0,62,0.00,,,0.24,weatherlink.com 1.10,2013-07-08 22:12:00,
2013-07-08 18:27:00,87.9,74.0,30.10,NNW,340,5.0,11.0,64,0.00,,,0.24,weatherlink.com 1.10,2013-07-08 22:27:00,
2013-07-08 18:42:00,87.6,74.0,30.11,North,11,5.0,11.0,64,0.00,,,0.24,weatherlink.com 1.10,2013-07-08 22:42:00,
2013-07-08 18:57:00,86.2,73.0,30.11,North,10,4.0,9.0,64,0.00,,,0.24,weatherlink.com 1.10,2013-07-08 22:57:00,
2013-07-08 19:12:00,85.8,74.0,30.11,North,360,3.0,7.0,67,0.00,,,0.24,weatherlink.com 1.10,2013-07-08 23:12:00,
2013-07-08 19:27:00,85.0,74.0,30.11,North,360,3.0,6.0,70,0.00,,,0.24,weatherlink.com 1.10,2013-07-08 23:27:00,
2013-07-08 20:12:00,82.3,74.0,30.13,NNE,16,0.0,1.0,77,0.00,,,0.24,weatherlink.com 1.10,2013-07-09 00:12:00,
2013-07-08 20:27:00,81.5,75.0,30.14,NNW,348,0.0,1.0,80,0.00,,,0.24,weatherlink.com 1.10,2013-07-09 00:27:00,
2013-07-08 20:42:00,80.6,74.0,30.14,NNW,348,0.0,1.0,81,0.00,,,0.24,weatherlink.com 1.10,2013-07-09 00:42:00,
2013-07-08 20:57:00,79.9,75.0,30.15,NNW,348,0.0,0.0,84,0.00,,,0.24,weatherlink.com 1.10,2013-07-09 00:57:00,
2013-07-08 21:12:00,79.5,75.0,30.16,NNW,348,0.0,0.0,87,0.00,,,0.24,weatherlink.com 1.10,2013-07-09 01:12:00,
2013-07-08 21:27:00,79.7,74.0,30.17,North,5,4.0,4.0,82,0.00,,,0.24,weatherlink.com 1.10,2013-07-09 01:27:00,
2013-07-08 21:42:00,79.4,74.0,30.17,North,355,2.0,4.0,82,0.00,,,0.24,weatherlink.com 1.10,2013-07-09 01:42:00,
2013-07-08 21:57:00,78.7,74.0,30.17,North,355,2.0,3.0,84,0.00,,,0.24,weatherlink.com 1.10,2013-07-09 01:57:00,
2013-07-08 22:12:00,78.2,73.0,30.18,North,355,1.0,4.0,85,0.00,,,0.24,weatherlink.com 1.10,2013-07-09 02:12:00,
2013-07-08 22:42:00,77.3,73.0,30.19,North,355,2.0,3.0,87,0.00,,,0.24,weatherlink.com 1.10,2013-07-09 02:42:00,
2013-07-08 22:57:00,76.6,73.0,30.19,North,355,0.0,4.0,89,0.00,,,0.24,weatherlink.com 1.10,2013-07-09 02:57:00,
2013-07-08 23:27:00,75.8,73.0,30.19,North,355,1.0,2.0,91,0.00,,,0.24,weatherlink.com 1.10,2013-07-09 03:27:00,
2013-07-08 23:42:00,75.7,73.0,30.19,North,355,0.0,2.0,92,0.00,,,0.24,weatherlink.com 1.10,2013-07-09 03:42:00,